Time;durP1;ratioP1;P1;durP2;ratioP2;P2;SDS_P1;SDS_P2;PMS_P1;PMS_P2;Temp;Humidity;BMP_temperature;BMP_pressure;BME280_temperature;BME280_humidity;BME280_pressure;Samples;Min_cycle;Max_cycle;Signal;HPM_P1;HPM_P2
2022/02/28 00:01:22;;;;;;;20.67;8.40;;;;;;;13.29;61.73;101143.81;5008602;28;20052;-83
2022/02/28 00:03:57;;;;;;;12.20;6.57;;;;;;;13.18;62.01;101136.53;5009171;28;20053;-84
2022/02/28 00:06:25;;;;;;;15.70;8.80;;;;;;;13.04;62.67;101136.28;5005573;28;20053;-83
2022/02/28 00:08:52;;;;;;;16.47;8.00;;;;;;;12.59;63.25;101081.94;5015363;28;20495;-83
2022/02/28 00:11:19;;;;;;;18.57;7.40;;;;;;;12.89;63.44;101133.47;5005283;28;20125;-84
2022/02/28 00:13:46;;;;;;;17.27;7.47;;;;;;;12.86;63.62;101134.91;5007865;28;20561;-83
2022/02/28 00:16:13;;;;;;;10.07;6.03;;;;;;;12.75;64.01;101117.25;5021040;28;20130;-83
2022/02/28 00:18:40;;;;;;;15.93;6.63;;;;;;;12.65;63.98;101091.19;5018540;28;20041;-82
2022/02/28 00:21:07;;;;;;;13.67;6.13;;;;;;;12.82;63.83;101122.56;5015542;28;20096;-83
2022/02/28 00:23:34;;;;;;;14.33;6.33;;;;;;;12.68;63.73;101099.84;4997727;28;20540;-84
2022/02/28 00:26:01;;;;;;;15.27;6.20;;;;;;;12.87;64.01;101130.97;5018434;28;20145;-83
2022/02/28 00:28:28;;;;;;;11.27;5.77;;;;;;;12.82;64.36;101122.56;5036356;28;20514;-83
2022/02/28 00:30:55;;;;;;;16.50;6.20;;;;;;;12.59;64.28;101095.13;5031182;28;20522;-83
2022/02/28 00:33:22;;;;;;;14.10;6.27;;;;;;;12.78;64.38;101136.28;5016380;28;20050;-83
2022/02/28 00:35:49;;;;;;;12.33;6.60;;;;;;;12.75;63.84;101110.78;5015361;28;20521;-84
2022/02/28 00:38:16;;;;;;;13.60;6.13;;;;;;;12.72;63.89;101102.97;4979936;28;20523;-83
2022/02/28 00:40:43;;;;;;;14.93;8.10;;;;;;;12.85;63.54;101124.78;5004071;28;20081;-83
2022/02/28 00:43:10;;;;;;;12.87;6.40;;;;;;;13.05;63.04;101133.16;5012802;28;20581;-84
2022/02/28 00:45:37;;;;;;;17.93;6.97;;;;;;;13.12;62.55;101126.44;5007102;28;20414;-84
2022/02/28 00:48:04;;;;;;;17.93;8.07;;;;;;;13.21;62.52;101138.75;5012522;28;20088;-83
2022/02/28 00:50:32;;;;;;;21.90;8.33;;;;;;;13.31;62.05;101154.75;4998896;28;20081;-82
2022/02/28 00:52:59;;;;;;;19.37;8.20;;;;;;;13.30;61.98;101162.34;5014670;28;20081;-84
2022/02/28 00:55:26;;;;;;;18.33;7.83;;;;;;;13.28;61.70;101168.22;5006063;28;20050;-83
2022/02/28 00:57:53;;;;;;;16.13;8.23;;;;;;;13.25;61.59;101170.75;5011888;28;20078;-83
2022/02/28 01:00:21;;;;;;;21.30;8.27;;;;;;;13.18;61.58;101170.19;5014969;28;20136;-82
2022/02/28 01:02:49;;;;;;;14.90;8.47;;;;;;;13.11;61.69;101164.84;5010530;28;20117;-84
2022/02/28 01:05:18;;;;;;;15.00;8.03;;;;;;;13.07;61.60;101152.53;5014240;28;20046;-83
2022/02/28 01:07:46;;;;;;;16.33;8.23;;;;;;;12.93;61.29;101140.22;5013210;28;20088;-83
2022/02/28 01:10:15;;;;;;;17.27;9.20;;;;;;;13.02;61.12;101161.81;5024574;28;20125;-82
2022/02/28 01:12:46;;;;;;;12.93;7.67;;;;;;;13.00;60.89;101161.22;5031578;28;20062;-82
2022/02/28 01:15:14;;;;;;;11.73;7.60;;;;;;;12.84;60.66;101137.13;5022828;28;20081;-82
2022/02/28 01:17:42;;;;;;;16.13;8.13;;;;;;;12.77;60.69;101142.19;5031275;28;20057;-83
2022/02/28 01:20:11;;;;;;;16.87;7.53;;;;;;;12.87;60.68;101155.34;5042712;28;20581;-84
2022/02/28 01:22:41;;;;;;;23.80;9.97;;;;;;;12.54;60.50;101116.38;5024012;28;20145;-84
2022/02/28 01:25:09;;;;;;;12.65;7.25;;;;;;;12.72;60.52;101154.25;5034543;28;20149;-84
2022/02/28 01:27:37;;;;;;;15.70;7.53;;;;;;;12.63;60.50;101147.50;5025187;28;20057;-84
2022/02/28 01:30:05;;;;;;;16.70;7.90;;;;;;;12.69;60.43;101148.38;5016045;28;20045;-84
2022/02/28 01:32:32;;;;;;;17.33;8.63;;;;;;;12.60;60.39;101136.84;5013108;28;20084;-83
2022/02/28 01:35:00;;;;;;;17.20;9.17;;;;;;;12.68;60.57;101155.91;5030312;28;20085;-83
2022/02/28 01:37:27;;;;;;;20.97;8.67;;;;;;;12.49;60.55;101119.22;5012337;28;20422;-83
2022/02/28 01:39:54;;;;;;;19.63;8.03;;;;;;;12.56;60.41;101135.75;5011124;28;20077;-82
2022/02/28 01:42:21;;;;;;;22.53;8.93;;;;;;;12.61;60.56;101138.53;5008546;28;20050;-83
2022/02/28 01:44:49;;;;;;;20.67;9.70;;;;;;;12.65;60.68;101150.00;5011398;28;20085;-84
2022/02/28 01:47:17;;;;;;;21.50;9.07;;;;;;;12.52;60.83;101134.63;5007385;28;20046;-84
2022/02/28 01:49:43;;;;;;;17.03;9.50;;;;;;;12.59;60.88;101151.16;5021500;28;20049;-85
2022/02/28 01:52:14;;;;;;;26.23;9.83;;;;;;;12.58;60.71;101147.53;5013229;28;20133;-84
2022/02/28 01:54:41;;;;;;;;;;;;;;;12.53;60.29;101158.72;5009425;28;20046;-84
2022/02/28 01:57:08;;;;;;;20.53;9.40;;;;;;;12.42;60.62;101135.47;5010121;28;20348;-83
2022/02/28 01:59:35;;;;;;;30.43;12.10;;;;;;;12.36;60.51;101130.97;5010270;28;20129;-84
2022/02/28 02:02:02;;;;;;;21.03;10.27;;;;;;;12.37;60.71;101138.22;5010970;28;20145;-83
2022/02/28 02:04:30;;;;;;;29.57;10.30;;;;;;;12.11;60.84;101100.13;5010820;28;20541;-83
2022/02/28 02:06:57;;;;;;;24.30;10.13;;;;;;;12.37;60.87;101137.41;5013566;28;20070;-84
2022/02/28 02:09:24;;;;;;;16.17;9.90;;;;;;;12.36;60.90;101139.38;5011337;28;20084;-84
2022/02/28 02:11:51;;;;;;;15.23;8.40;;;;;;;12.44;61.01;101152.81;5017328;28;20069;-83
2022/02/28 02:14:18;;;;;;;18.57;10.40;;;;;;;12.30;60.97;101134.88;5042119;28;20030;-84
2022/02/28 02:16:45;;;;;;;20.87;9.73;;;;;;;12.36;60.81;101156.16;5034782;28;20041;-84
2022/02/28 02:19:13;;;;;;;18.27;9.67;;;;;;;12.43;61.19;101183.91;5029684;28;20039;-83
2022/02/28 02:21:39;;;;;;;21.40;9.13;;;;;;;12.32;61.00;101164.28;5030019;28;20086;-83
2022/02/28 02:24:06;;;;;;;24.63;9.80;;;;;;;12.41;60.96;101167.41;5051988;28;20061;-83
2022/02/28 02:26:33;;;;;;;20.77;9.50;;;;;;;12.27;61.21;101132.63;5031731;28;20053;-82
2022/02/28 02:29:00;;;;;;;27.70;9.73;;;;;;;12.31;61.13;101130.97;5026885;28;20580;-78
2022/02/28 02:31:28;;;;;;;24.17;8.90;;;;;;;12.17;61.27;101105.47;5034735;28;20036;-83
2022/02/28 02:33:57;;;;;;;20.40;8.98;;;;;;;12.31;61.70;101134.59;5036626;28;20045;-82
2022/02/28 02:36:24;;;;;;;21.60;8.60;;;;;;;12.38;61.60;101145.53;5036265;28;20092;-82
2022/02/28 02:38:52;;;;;;;21.03;9.33;;;;;;;12.43;61.58;101137.13;5037927;28;20026;-82
2022/02/28 02:41:20;;;;;;;19.67;8.17;;;;;;;12.29;61.91;101119.19;5038052;28;20042;-82
2022/02/28 02:43:47;;;;;;;14.73;8.37;;;;;;;12.22;62.07;101104.63;5035230;28;20057;-83
2022/02/28 02:46:14;;;;;;;22.33;7.93;;;;;;;12.26;62.27;101126.19;5036995;28;20056;-83
2022/02/28 02:48:49;;;;;;;11.93;6.33;;;;;;;12.10;63.07;101107.66;5033029;28;20036;-83
2022/02/28 02:51:21;;;;;;;15.57;5.78;;;;;;;12.18;63.98;101114.72;5029889;28;20068;-83
2022/02/28 02:53:48;;;;;;;21.60;7.72;;;;;;;11.80;64.43;101049.66;5024703;28;20051;-83
2022/02/28 02:56:18;;;;;;;13.83;6.13;;;;;;;12.02;64.39;101097.88;4998609;28;20049;-83
2022/02/28 02:58:45;;;;;;;16.60;6.83;;;;;;;12.09;64.50;101106.00;5014328;28;20108;-83
2022/02/28 03:01:11;;;;;;;10.63;5.40;;;;;;;11.65;64.89;101038.44;5008422;28;20694;-83
2022/02/28 03:03:39;;;;;;;18.10;5.73;;;;;;;11.93;65.50;101082.75;5014788;28;20058;-84
2022/02/28 03:06:07;;;;;;;15.13;6.43;;;;;;;11.98;65.97;101091.16;5017593;28;20045;-83
2022/02/28 03:08:34;;;;;;;9.70;6.40;;;;;;;11.82;66.63;101069.81;5007558;28;20103;-84
2022/02/28 03:11:01;;;;;;;13.30;6.63;;;;;;;11.92;66.58;101092.25;5019182;28;20473;-83
2022/02/28 03:13:28;;;;;;;14.50;7.20;;;;;;;11.84;66.85;101087.19;5003943;28;20103;-83
2022/02/28 03:15:55;;;;;;;15.10;6.90;;;;;;;11.97;66.34;101094.25;5023105;28;20069;-84
2022/02/28 03:18:23;;;;;;;20.03;7.23;;;;;;;12.00;66.16;101096.47;5009665;28;20100;-83
2022/02/28 03:20:50;;;;;;;16.07;7.23;;;;;;;11.89;66.00;101075.16;5009653;28;20376;-83
2022/02/28 03:23:16;;;;;;;16.27;7.00;;;;;;;12.00;65.94;101099.25;4995458;28;20088;-83
2022/02/28 03:25:44;;;;;;;18.97;8.20;;;;;;;11.94;65.77;101090.03;5007941;28;20459;-84
2022/02/28 03:28:11;;;;;;;17.90;9.00;;;;;;;11.56;65.79;101032.53;5012406;28;20076;-83
2022/02/28 03:30:38;;;;;;;23.20;7.20;;;;;;;11.85;65.92;101078.50;5011357;28;20145;-82
2022/02/28 03:33:05;;;;;;;19.47;7.80;;;;;;;11.74;65.99;101068.41;5007299;28;20056;-83
2022/02/28 03:35:31;;;;;;;12.07;7.10;;;;;;;11.78;66.36;101077.06;5001180;28;20084;-83
2022/02/28 03:37:59;;;;;;;12.20;7.50;;;;;;;11.57;66.43;101065.81;5017998;28;20058;-84
2022/02/28 03:40:29;;;;;;;10.23;5.70;;;;;;;11.67;66.46;101103.34;5013728;28;20062;-84
2022/02/28 03:42:57;;;;;;;12.27;6.90;;;;;;;11.29;66.56;101057.91;5039914;28;20085;-83
2022/02/28 03:45:24;;;;;;;10.93;5.37;;;;;;;11.18;67.17;101054.22;5012807;28;20086;-83
2022/02/28 03:47:51;;;;;;;7.33;3.70;;;;;;;11.00;68.05;101068.66;5008571;28;20089;-83
2022/02/28 03:50:18;;;;;;;20.73;5.80;;;;;;;10.96;69.22;101095.44;5016559;28;20077;-83
2022/02/28 03:52:45;;;;;;;10.10;6.43;;;;;;;10.69;69.25;101068.44;5015750;28;20057;-83
2022/02/28 03:55:12;;;;;;;14.13;6.73;;;;;;;10.93;68.94;101099.63;5002055;28;20089;-83
2022/02/28 03:57:39;;;;;;;17.97;8.93;;;;;;;10.96;68.02;101085.13;5007522;28;20570;-82
2022/02/28 04:00:07;;;;;;;12.07;6.00;;;;;;;11.01;67.70;101087.94;5006759;28;20503;-83
2022/02/28 04:02:35;;;;;;;13.00;6.47;;;;;;;10.82;67.76;101055.97;5027024;28;20141;-83
2022/02/28 04:05:03;;;;;;;20.87;8.73;;;;;;;11.02;67.90;101095.22;5016279;28;20055;-83
2022/02/28 04:07:30;;;;;;;17.40;8.07;;;;;;;11.00;67.88;101105.81;5016320;28;20083;-83
2022/02/28 04:09:56;;;;;;;15.17;8.07;;;;;;;11.02;67.50;101105.56;5013938;28;20410;-83
2022/02/28 04:12:23;;;;;;;16.60;7.97;;;;;;;10.79;66.98;101057.34;5029884;28;20081;-82
2022/02/28 04:14:51;;;;;;;17.27;7.17;;;;;;;10.94;67.38;101081.75;5019512;28;20128;-83
2022/02/28 04:17:18;;;;;;;23.13;7.57;;;;;;;11.01;67.57;101101.94;5029185;28;20085;-82
2022/02/28 04:19:45;;;;;;;16.93;8.37;;;;;;;10.83;68.12;101080.00;5011550;28;20085;-83
2022/02/28 04:22:12;;;;;;;16.90;9.53;;;;;;;10.83;67.36;101077.19;5011768;28;20133;-82
2022/02/28 04:24:38;;;;;;;13.60;9.10;;;;;;;11.01;67.07;101079.56;5015182;28;20137;-83
2022/02/28 04:27:05;;;;;;;16.30;8.93;;;;;;;11.17;66.30;101091.66;5016893;28;20134;-82
2022/02/28 04:29:32;;;;;;;24.47;9.77;;;;;;;11.10;66.38;101080.72;5010467;28;20080;-84
2022/02/28 04:32:03;;;;;;;24.00;8.97;;;;;;;11.02;66.48;101067.28;5008589;28;20049;-84
2022/02/28 04:34:32;;;;;;;13.33;7.97;;;;;;;11.23;66.43;101106.50;5012499;28;20050;-84
2022/02/28 04:37:00;;;;;;;14.27;7.30;;;;;;;11.14;66.46;101092.19;5013948;28;20077;-83
2022/02/28 04:39:27;;;;;;;16.17;9.30;;;;;;;11.36;65.79;101108.81;5015862;28;20128;-83
2022/02/28 04:41:54;;;;;;;16.90;9.57;;;;;;;11.35;65.57;101104.31;5007756;28;20285;-84
2022/02/28 04:44:21;;;;;;;16.40;9.03;;;;;;;11.36;65.51;101094.84;5004748;28;20089;-83
2022/02/28 04:46:49;;;;;;;15.53;8.63;;;;;;;11.51;65.18;101108.88;5019788;28;20140;-82
2022/02/28 04:49:16;;;;;;;22.57;11.47;;;;;;;11.53;64.91;101117.00;5033385;28;20050;-84
2022/02/28 04:51:43;;;;;;;15.53;9.27;;;;;;;11.38;64.43;101081.41;5005336;28;20097;-82
2022/02/28 04:54:09;;;;;;;18.90;9.73;;;;;;;11.45;64.34;101089.53;5026255;28;20214;-82
2022/02/28 04:56:36;;;;;;;17.00;9.67;;;;;;;11.51;64.21;101094.06;5017608;28;20081;-83
2022/02/28 04:59:03;;;;;;;19.43;10.47;;;;;;;11.49;63.90;101087.91;5006189;28;20089;-83
2022/02/28 05:01:30;;;;;;;14.57;8.07;;;;;;;11.65;64.37;101119.56;5023595;28;20549;-83
2022/02/28 05:03:59;;;;;;;15.63;9.47;;;;;;;11.70;64.08;101136.38;4972330;28;1298476;-83
2022/02/28 05:06:26;;;;;;;14.93;9.50;;;;;;;11.24;63.85;101064.28;5021651;28;20084;-84
2022/02/28 05:08:55;;;;;;;18.70;9.90;;;;;;;11.37;63.50;101090.91;5019297;28;20053;-83
2022/02/28 05:11:22;;;;;;;21.83;8.93;;;;;;;11.60;63.48;101138.00;5021939;28;20081;-83
2022/02/28 05:13:49;;;;;;;17.17;9.27;;;;;;;11.53;63.34;101136.59;4999034;28;20082;-83
2022/02/28 05:16:15;;;;;;;15.07;8.33;;;;;;;11.51;62.95;101142.44;5018536;28;20128;-83
2022/02/28 05:18:42;;;;;;;18.27;11.03;;;;;;;11.51;62.87;101158.38;5028331;28;20042;-83
2022/02/28 05:21:09;;;;;;;18.50;9.60;;;;;;;11.47;63.12;101158.09;5014405;28;20534;-83
2022/02/28 05:23:36;;;;;;;13.57;9.77;;;;;;;11.46;62.82;101167.59;5018443;28;20133;-83
2022/02/28 05:26:08;;;;;;;22.43;10.40;;;;;;;11.42;62.70;101166.47;5016096;28;20065;-83
2022/02/28 05:28:38;;;;;;;19.03;9.93;;;;;;;11.35;62.68;101161.09;5003079;28;20057;-83
2022/02/28 05:31:05;;;;;;;20.37;9.73;;;;;;;11.24;62.76;101147.31;5015723;28;20097;-83
2022/02/28 05:33:31;;;;;;;22.10;11.23;;;;;;;11.38;62.66;101176.47;5031195;28;20030;-84
2022/02/28 05:35:58;;;;;;;18.90;9.87;;;;;;;11.37;62.67;101180.41;5042482;28;21249;-82
2022/02/28 05:38:25;;;;;;;17.20;9.43;;;;;;;11.36;62.94;101170.34;5027177;28;20049;-83
2022/02/28 05:40:53;;;;;;;18.27;9.73;;;;;;;11.20;62.89;101152.63;5031467;28;20061;-85
2022/02/28 05:43:20;;;;;;;18.90;10.27;;;;;;;11.28;63.06;101170.81;5024659;28;20112;-82
2022/02/28 05:45:47;;;;;;;18.73;9.17;;;;;;;11.27;63.17;101166.34;5015492;28;20046;-84
2022/02/28 05:48:14;;;;;;;15.80;8.33;;;;;;;10.77;63.49;101114.59;5036043;28;20046;-84
2022/02/28 05:50:41;;;;;;;14.97;7.80;;;;;;;11.10;64.00;101175.75;5012023;28;20054;-84
2022/02/28 05:53:08;;;;;;;11.47;7.57;;;;;;;10.49;64.42;101087.84;5014579;28;20050;-83
2022/02/28 05:55:36;;;;;;;11.20;7.07;;;;;;;10.74;64.98;101159.84;5028901;28;20529;-83
2022/02/28 05:58:03;;;;;;;20.87;7.77;;;;;;;10.57;64.89;101138.47;5016746;28;20121;-84
2022/02/28 06:00:30;;;;;;;10.67;6.97;;;;;;;10.76;65.28;101185.53;5034614;28;20069;-83
2022/02/28 06:02:57;;;;;;;17.10;7.03;;;;;;;10.54;65.32;101157.72;5019910;28;20085;-83
2022/02/28 06:05:24;;;;;;;11.13;6.23;;;;;;;10.58;65.65;101187.63;5015572;28;20072;-83
2022/02/28 06:07:50;;;;;;;9.27;6.43;;;;;;;10.38;65.47;101157.56;5014511;28;20842;-83
2022/02/28 06:10:20;;;;;;;9.27;5.37;;;;;;;10.16;65.52;101132.47;5034717;28;20042;-81
2022/02/28 06:12:50;;;;;;;10.20;5.17;;;;;;;10.05;65.95;101136.28;5027711;28;20069;-82
2022/02/28 06:15:33;;;;;;;8.93;5.40;;;;;;;8.71;66.35;100951.00;5024719;28;20046;-81
2022/02/28 06:18:00;;;;;;;12.37;5.77;;;;;;;9.36;66.71;101063.53;5019175;28;20042;-83
2022/02/28 06:20:28;;;;;;;15.53;5.60;;;;;;;9.89;66.83;101140.84;5041712;28;20740;-81
2022/02/28 06:22:55;;;;;;;10.40;5.33;;;;;;;9.92;67.05;101170.19;5033534;28;20049;-82
2022/02/28 06:25:22;;;;;;;17.30;5.53;;;;;;;9.91;67.22;101174.91;5030524;28;20049;-82
2022/02/28 06:27:51;;;;;;;9.43;5.70;;;;;;;10.05;67.31;101208.84;5029450;28;20042;-82
2022/02/28 06:30:21;;;;;;;10.80;5.30;;;;;;;10.04;67.26;101212.72;5025037;28;20054;-82
2022/02/28 06:32:48;;;;;;;10.60;5.00;;;;;;;9.84;67.69;101190.16;5040989;28;20057;-81
2022/02/28 06:35:16;;;;;;;9.53;4.57;;;;;;;9.86;67.98;101205.53;5013353;28;20054;-81
2022/02/28 06:37:43;;;;;;;9.90;5.90;;;;;;;9.64;68.08;101180.44;5010881;28;20042;-82
2022/02/28 06:40:11;;;;;;;7.63;3.93;;;;;;;9.76;68.55;101210.13;5015092;28;20069;-82
2022/02/28 06:42:38;;;;;;;5.80;4.20;;;;;;;9.44;68.81;101153.13;5014714;28;20088;-82
2022/02/28 06:45:05;;;;;;;12.27;6.60;;;;;;;9.68;68.81;101192.75;5012781;28;20495;-84
2022/02/28 06:47:33;;;;;;;11.83;5.80;;;;;;;9.83;68.74;101213.56;5028437;28;20074;-83
2022/02/28 06:50:00;;;;;;;12.53;5.80;;;;;;;9.58;68.78;101173.09;5022900;28;20046;-83
2022/02/28 06:52:27;;;;;;;16.77;7.47;;;;;;;9.63;68.65;101184.31;5018172;28;20144;-83
2022/02/28 06:54:56;;;;;;;17.63;8.77;;;;;;;9.72;68.52;101205.06;5014253;28;20182;-82
2022/02/28 06:57:24;;;;;;;10.60;4.97;;;;;;;9.86;68.54;101222.25;5013868;28;20050;-82
2022/02/28 06:59:51;;;;;;;13.07;6.77;;;;;;;9.90;68.26;101220.63;5015962;28;20088;-82
2022/02/28 07:02:18;;;;;;;18.53;6.67;;;;;;;9.82;68.21;101209.94;5008683;28;20137;-82
2022/02/28 07:04:47;;;;;;;13.60;6.87;;;;;;;9.57;68.09;101167.75;5034910;28;20100;-83
2022/02/28 07:07:16;;;;;;;13.63;7.67;;;;;;;10.04;68.06;101246.19;5006280;28;20565;-82
2022/02/28 07:09:47;;;;;;;18.15;8.10;;;;;;;9.94;68.27;101234.91;5008191;28;20078;-82
2022/02/28 07:12:14;;;;;;;15.17;7.83;;;;;;;10.02;67.97;101237.25;5021093;28;20081;-82
2022/02/28 07:14:42;;;;;;;18.07;7.83;;;;;;;10.28;67.37;101262.69;5016540;28;20054;-81
2022/02/28 07:17:09;;;;;;;10.87;7.20;;;;;;;9.93;67.46;101210.91;5013148;28;20124;-83
2022/02/28 07:19:36;;;;;;;14.17;7.53;;;;;;;10.26;67.54;101262.13;5014254;28;20124;-81
2022/02/28 07:22:03;;;;;;;14.37;8.20;;;;;;;10.05;67.56;101225.59;5019303;28;20105;-83
2022/02/28 07:24:30;;;;;;;12.67;6.00;;;;;;;10.23;67.50;101260.66;5013649;28;20530;-83
2022/02/28 07:26:57;;;;;;;15.83;6.27;;;;;;;10.22;67.74;101275.72;5031029;28;20084;-79
2022/02/28 07:29:24;;;;;;;13.47;5.93;;;;;;;9.97;68.07;101221.28;5029086;28;20041;-82
2022/02/28 07:32:02;;;;;;;13.48;6.47;;;;;;;10.01;68.28;101232.75;5020855;28;20053;-82
2022/02/28 07:34:29;;;;;;;14.23;7.17;;;;;;;9.91;68.24;101213.09;5021495;28;20049;-81
2022/02/28 07:36:56;;;;;;;8.17;5.17;;;;;;;9.99;68.29;101223.81;5013599;28;20090;-79
2022/02/28 07:39:23;;;;;;;12.80;6.57;;;;;;;9.98;68.41;101213.75;5018382;28;20065;-79
2022/02/28 07:41:50;;;;;;;12.87;6.47;;;;;;;10.14;68.19;101235.16;5014483;28;20096;-82
2022/02/28 07:44:17;;;;;;;19.27;8.03;;;;;;;10.32;67.87;101239.56;5011729;28;20069;-79
2022/02/28 07:46:44;;;;;;;13.43;6.53;;;;;;;10.62;67.97;101278.16;5027564;28;20073;-77
2022/02/28 07:49:11;;;;;;;15.47;8.67;;;;;;;10.67;67.35;101249.47;5013239;28;20057;-78
2022/02/28 07:51:38;;;;;;;13.37;7.03;;;;;;;10.96;66.96;101250.00;5006012;28;20728;-83
2022/02/28 07:54:05;;;;;;;13.50;7.03;;;;;;;11.13;66.71;101241.47;5016795;28;20074;-81
2022/02/28 07:56:32;;;;;;;13.40;5.57;;;;;;;11.55;66.39;101263.84;5013167;28;20046;-79
2022/02/28 07:58:59;;;;;;;5.80;4.00;;;;;;;11.62;66.16;101258.88;5026613;28;20081;-77
2022/02/28 08:01:26;;;;;;;10.43;4.40;;;;;;;11.65;65.46;101262.22;5012727;28;20050;-78
2022/02/28 08:03:53;;;;;;;13.73;6.93;;;;;;;11.38;65.33;101249.19;5006640;28;20046;-81
2022/02/28 08:06:20;;;;;;;17.93;7.40;;;;;;;11.58;64.90;101265.28;5017327;28;20113;-80
2022/02/28 08:08:46;;;;;;;12.57;4.70;;;;;;;11.74;64.55;101269.00;5008845;28;20065;-82
2022/02/28 08:11:13;;;;;;;11.13;5.23;;;;;;;11.80;64.38;101270.72;5014002;28;20491;-89
2022/02/28 08:13:41;;;;;;;12.20;6.20;;;;;;;11.74;64.02;101241.03;5018322;28;20077;-83
2022/02/28 08:16:08;;;;;;;10.10;4.93;;;;;;;11.96;63.55;101252.06;5028644;28;20081;-81
2022/02/28 08:18:35;;;;;;;9.43;5.30;;;;;;;11.92;63.71;101268.56;5022591;28;20070;-84
2022/02/28 08:21:03;;;;;;;15.03;7.83;;;;;;;11.97;63.19;101278.97;5019330;28;20089;-87
2022/02/28 08:23:29;;;;;;;9.90;6.10;;;;;;;11.81;63.25;101245.25;5014405;28;20052;-85
2022/02/28 08:25:56;;;;;;;9.17;4.73;;;;;;;11.96;63.13;101278.09;5020712;28;20057;-85
2022/02/28 08:28:24;;;;;;;11.63;5.60;;;;;;;11.88;63.04;101264.66;5018095;28;20130;-83
2022/02/28 08:30:52;;;;;;;12.47;7.27;;;;;;;11.87;63.19;101274.16;5016774;28;20141;-84
2022/02/28 08:33:18;;;;;;;12.97;6.20;;;;;;;11.53;63.18;101240.91;5017049;28;20038;-86
2022/02/28 08:35:45;;;;;;;11.50;6.13;;;;;;;11.76;62.73;101255.56;5049449;28;20050;-86
2022/02/28 08:38:17;;;;;;;11.77;6.07;;;;;;;12.02;62.87;101312.56;5028607;28;20030;-85
2022/02/28 08:40:45;;;;;;;12.47;6.10;;;;;;;12.14;62.42;101306.78;5049144;28;20941;-85
2022/02/28 08:43:12;;;;;;;14.20;6.57;;;;;;;12.11;62.18;101282.13;5032720;28;20057;-82
2022/02/28 08:45:39;;;;;;;10.70;7.07;;;;;;;12.32;62.05;101317.50;5024916;28;20089;-82
2022/02/28 08:48:06;;;;;;;14.97;7.33;;;;;;;12.55;62.21;101283.41;5022955;28;20045;-84
2022/02/28 08:50:33;;;;;;;13.83;7.20;;;;;;;13.04;61.98;101294.13;5026347;28;20144;-83
2022/02/28 08:53:00;;;;;;;13.57;7.53;;;;;;;13.84;61.43;101323.56;5014945;28;20073;-86
2022/02/28 08:55:27;;;;;;;14.93;7.20;;;;;;;14.51;60.52;101318.63;5018287;28;20077;-84
2022/02/28 08:57:54;;;;;;;17.50;7.53;;;;;;;15.19;60.06;101290.63;5044417;28;20069;-83
2022/02/28 09:00:22;;;;;;;11.70;5.80;;;;;;;16.07;58.67;101314.03;5014096;28;20510;-81
2022/02/28 09:02:49;;;;;;;12.50;7.10;;;;;;;16.45;57.43;101309.31;5008869;28;20061;-79
2022/02/28 09:05:17;;;;;;;12.77;6.60;;;;;;;16.83;56.68;101320.69;5008219;28;20133;-84
2022/02/28 09:07:44;;;;;;;11.57;6.55;;;;;;;17.06;56.20;101324.56;5011814;28;20470;-85
2022/02/28 09:10:11;;;;;;;12.38;7.15;;;;;;;17.00;55.43;101337.91;5014305;28;20081;-86
2022/02/28 09:12:38;;;;;;;10.98;6.65;;;;;;;16.89;55.48;101329.88;5013999;28;20077;-84
2022/02/28 09:15:06;;;;;;;12.60;6.32;;;;;;;17.00;55.11;101329.44;5013154;28;22986;-86
2022/02/28 09:17:33;;;;;;;15.00;6.50;;;;;;;17.11;54.66;101337.75;5011279;28;20132;-86
2022/02/28 09:20:01;;;;;;;14.02;6.45;;;;;;;17.15;53.59;101345.31;5004734;28;20085;-86
2022/02/28 09:22:28;;;;;;;11.27;6.38;;;;;;;17.07;53.17;101348.81;5011709;28;20089;-88
2022/02/28 09:24:55;;;;;;;15.40;6.72;;;;;;;17.25;53.18;101359.25;5009114;28;20136;-90
2022/02/28 09:27:22;;;;;;;12.75;7.20;;;;;;;17.31;52.96;101316.84;5027311;28;20109;-89
2022/02/28 09:30:09;;;;;;;13.02;6.75;;;;;;;17.64;52.45;101340.25;5016790;28;20058;-90
2022/02/28 09:32:36;;;;;;;15.18;6.32;;;;;;;17.53;51.84;101314.19;5017962;28;20081;-89
2022/02/28 09:35:03;;;;;;;9.85;6.15;;;;;;;17.90;51.58;101363.28;5011224;28;20124;-89
2022/02/28 09:37:31;;;;;;;11.27;6.35;;;;;;;17.83;50.89;101326.13;5014628;28;20140;-86
2022/02/28 09:39:58;;;;;;;9.30;7.00;;;;;;;18.34;50.47;101357.06;5002142;28;20081;-91
2022/02/28 09:42:25;;;;;;;14.90;7.35;;;;;;;18.79;50.03;101356.47;5019658;28;20153;-90
2022/02/28 09:44:53;;;;;;;12.77;6.18;;;;;;;19.10;49.28;101348.94;5026488;28;20053;-92
2022/02/28 09:47:33;;;;;;;11.88;7.07;;;;;;;18.80;48.54;101299.53;5008090;28;20141;-89
2022/02/28 09:50:00;;;;;;;9.65;6.13;;;;;;;18.69;48.16;101281.94;5013238;28;20061;-87
2022/02/28 09:52:30;;;;;;;10.55;5.68;;;;;;;19.16;47.93;101375.97;5012817;28;20072;-86
2022/02/28 09:54:57;;;;;;;15.35;6.30;;;;;;;18.93;47.13;101360.94;5011940;28;20045;-87
2022/02/28 09:57:24;;;;;;;15.13;6.35;;;;;;;18.82;47.06;101336.03;5011158;28;20080;-87
2022/02/28 09:59:54;;;;;;;11.40;6.82;;;;;;;18.74;47.02;101328.28;5009349;28;20064;-88
2022/02/28 10:02:23;;;;;;;14.13;6.70;;;;;;;18.73;46.97;101282.16;5011675;28;20326;-88
2022/02/28 10:04:53;;;;;;;9.38;5.82;;;;;;;19.64;46.77;101363.25;5011212;28;20440;-88
2022/02/28 10:07:25;;;;;;;10.43;6.07;;;;;;;19.69;46.24;101367.94;5010323;28;20081;-87
2022/02/28 10:10:10;;;;;;;12.23;6.90;;;;;;;19.63;46.17;101339.75;5001196;28;20467;-87
2022/02/28 10:12:38;;;;;;;10.95;6.90;;;;;;;19.71;46.07;101337.28;5022192;28;20443;-85
2022/02/28 10:15:08;;;;;;;10.27;5.82;;;;;;;19.87;46.07;101367.75;5009033;28;20062;-87
2022/02/28 10:17:42;;;;;;;12.00;6.45;;;;;;;19.45;46.00;101371.88;5003169;28;20096;-79
2022/02/28 10:20:27;;;;;;;15.23;7.68;;;;;;;19.03;45.77;101370.34;5009014;28;20176;-78
2022/02/28 10:23:05;;;;;;;15.25;5.68;;;;;;;18.87;46.21;101362.22;5005124;28;20493;-79
2022/02/28 10:25:36;;;;;;;5.95;4.13;;;;;;;18.75;46.08;101381.72;5005356;28;20053;-78
2022/02/28 10:28:15;;;;;;;14.13;7.55;;;;;;;18.66;46.67;101377.91;5007603;28;20061;-79
2022/02/28 10:30:50;;;;;;;;;;;;;;;18.97;46.66;101378.13;5010421;28;20078;-83
2022/02/28 10:33:29;;;;;;;12.07;6.15;;;;;;;19.61;45.96;101370.34;5007997;28;19960;-84
2022/02/28 10:36:13;;;;;;;12.63;5.93;;;;;;;19.40;45.65;101350.19;5009584;28;20069;-84
2022/02/28 10:38:48;;;;;;;12.02;6.65;;;;;;;19.22;45.23;101327.75;5003029;28;20675;-84
2022/02/28 10:41:19;;;;;;;15.55;4.78;;;;;;;18.76;45.44;101320.31;5019135;28;20582;-85
2022/02/28 10:43:47;;;;;;;10.70;4.50;;;;;;;19.04;45.56;101369.19;5007970;28;20085;-83
2022/02/28 10:46:26;;;;;;;9.70;5.35;;;;;;;18.89;45.56;101334.44;5024659;28;20133;-84
2022/02/28 10:49:04;;;;;;;10.95;6.03;;;;;;;19.23;45.61;101375.53;5011587;28;20578;-79
2022/02/28 10:51:43;;;;;;;16.77;6.53;;;;;;;19.48;45.49;101368.41;5004032;28;20148;-78
2022/02/28 10:54:18;;;;;;;12.70;6.23;;;;;;;20.07;44.76;101383.38;5011647;28;20131;-83
2022/02/28 10:56:51;;;;;;;10.23;6.40;;;;;;;20.37;44.33;101409.22;5020859;28;20350;-77
2022/02/28 10:59:19;;;;;;;10.70;6.55;;;;;;;20.26;44.19;101368.13;5004468;28;20049;-76
2022/02/28 11:01:46;;;;;;;13.18;5.13;;;;;;;20.68;44.05;101377.16;5006989;28;20057;-77
2022/02/28 11:04:41;;;;;;;11.23;5.72;;;;;;;21.34;43.69;101397.03;5002134;28;20108;-77
2022/02/28 11:07:12;;;;;;;13.75;5.80;;;;;;;21.44;42.54;101393.88;5002779;28;20513;-78
2022/02/28 11:09:42;;;;;;;7.32;4.78;;;;;;;21.34;41.95;101408.38;5003388;28;20157;-83
2022/02/28 11:12:30;;;;;;;10.15;4.70;;;;;;;21.24;42.01;101392.50;5007811;28;20065;-90
2022/02/28 11:15:05;;;;;;;12.48;4.60;;;;;;;21.42;41.86;101390.53;5005132;28;20132;-86
2022/02/28 11:17:39;;;;;;;7.47;5.00;;;;;;;21.29;41.47;101346.84;5005512;28;20137;-84
2022/02/28 11:20:14;;;;;;;8.27;4.00;;;;;;;21.84;41.22;101370.91;4999882;28;20156;-81
2022/02/28 11:22:43;;;;;;;7.32;4.30;;;;;;;22.09;40.57;101380.59;5010597;28;20046;-80
2022/02/28 11:25:20;;;;;;;9.65;3.97;;;;;;;22.06;40.84;101375.56;5001958;28;20061;-78